<?xml version="1.0" encoding="UTF-8" standalone="no" ?>
<gpx xmlns="http://www.topografix.com/GPX/1/1" xmlns:xsi="http://www.w3.org/2001/XMLSchema-instance" xsi:schemaLocation="http://www.topografix.com/GPX/1/1 http://www.topografix.com/GPX/1/1/gpx.xsd" version="1.1" creator="VisuGPX - https://www.visugpx.com">
  <metadata>
    <name>les Vignes Maxane montée route</name>
  </metadata>
  <trk>
    <name><![CDATA[les Vignes Maxane montée route]]></name>
    <trkseg>
      <trkpt lat="44.27817" lon="3.22983">
        <ele>433.40002441406</ele>
        <time>2019-05-16T09:08:40Z</time>
      </trkpt>
      <trkpt lat="44.27816" lon="3.22979">
        <ele>433.59997558594</ele>
        <time>2019-05-16T09:08:49Z</time>
      </trkpt>
      <trkpt lat="44.27813" lon="3.22974">
        <ele>433.40002441406</ele>
        <time>2019-05-16T09:08:51Z</time>
      </trkpt>
      <trkpt lat="44.27801" lon="3.22954">
        <ele>432.59997558594</ele>
        <time>2019-05-16T09:08:59Z</time>
      </trkpt>
      <trkpt lat="44.27793" lon="3.22935">
        <ele>431.59997558594</ele>
        <time>2019-05-16T09:09:07Z</time>
      </trkpt>
      <trkpt lat="44.27789" lon="3.22929">
        <ele>431.40002441406</ele>
        <time>2019-05-16T09:09:09Z</time>
      </trkpt>
      <trkpt lat="44.27781" lon="3.2291">
        <ele>430.79998779297</ele>
        <time>2019-05-16T09:09:14Z</time>
      </trkpt>
      <trkpt lat="44.27771" lon="3.22895">
        <ele>430.40002441406</ele>
        <time>2019-05-16T09:09:19Z</time>
      </trkpt>
      <trkpt lat="44.27766" lon="3.22889">
        <ele>430</ele>
        <time>2019-05-16T09:09:21Z</time>
      </trkpt>
      <trkpt lat="44.27757" lon="3.22877">
        <ele>429.20001220703</ele>
        <time>2019-05-16T09:09:25Z</time>
      </trkpt>
      <trkpt lat="44.2774" lon="3.22854">
        <ele>428.40002441406</ele>
        <time>2019-05-16T09:09:32Z</time>
      </trkpt>
      <trkpt lat="44.27735" lon="3.22848">
        <ele>428.20001220703</ele>
        <time>2019-05-16T09:09:34Z</time>
      </trkpt>
      <trkpt lat="44.27724" lon="3.22837">
        <ele>427.40002441406</ele>
        <time>2019-05-16T09:09:39Z</time>
      </trkpt>
      <trkpt lat="44.27717" lon="3.22832">
        <ele>426.59997558594</ele>
        <time>2019-05-16T09:09:45Z</time>
      </trkpt>
      <trkpt lat="44.27707" lon="3.22819">
        <ele>426.59997558594</ele>
        <time>2019-05-16T09:09:53Z</time>
      </trkpt>
      <trkpt lat="44.27692" lon="3.22805">
        <ele>427</ele>
        <time>2019-05-16T09:10:01Z</time>
      </trkpt>
      <trkpt lat="44.27666" lon="3.22793">
        <ele>428.20001220703</ele>
        <time>2019-05-16T09:10:10Z</time>
      </trkpt>
      <trkpt lat="44.27663" lon="3.22791">
        <ele>428.40002441406</ele>
        <time>2019-05-16T09:10:11Z</time>
      </trkpt>
      <trkpt lat="44.27649" lon="3.22786">
        <ele>429.40002441406</ele>
        <time>2019-05-16T09:10:17Z</time>
      </trkpt>
      <trkpt lat="44.27633" lon="3.22783">
        <ele>430.20001220703</ele>
        <time>2019-05-16T09:10:23Z</time>
      </trkpt>
      <trkpt lat="44.27625" lon="3.22781">
        <ele>430.59997558594</ele>
        <time>2019-05-16T09:10:26Z</time>
      </trkpt>
      <trkpt lat="44.27611" lon="3.22777">
        <ele>431.20001220703</ele>
        <time>2019-05-16T09:10:31Z</time>
      </trkpt>
      <trkpt lat="44.27602" lon="3.22776">
        <ele>431.79998779297</ele>
        <time>2019-05-16T09:10:34Z</time>
      </trkpt>
      <trkpt lat="44.2759" lon="3.22774">
        <ele>432.59997558594</ele>
        <time>2019-05-16T09:10:38Z</time>
      </trkpt>
      <trkpt lat="44.27586" lon="3.22774">
        <ele>432.79998779297</ele>
        <time>2019-05-16T09:10:39Z</time>
      </trkpt>
      <trkpt lat="44.27566" lon="3.22775">
        <ele>433.79998779297</ele>
        <time>2019-05-16T09:10:46Z</time>
      </trkpt>
      <trkpt lat="44.27563" lon="3.22775">
        <ele>434.20001220703</ele>
        <time>2019-05-16T09:10:47Z</time>
      </trkpt>
      <trkpt lat="44.27544" lon="3.22778">
        <ele>435</ele>
        <time>2019-05-16T09:10:53Z</time>
      </trkpt>
      <trkpt lat="44.2754" lon="3.22779">
        <ele>435.20001220703</ele>
        <time>2019-05-16T09:10:54Z</time>
      </trkpt>
      <trkpt lat="44.27524" lon="3.22784">
        <ele>436.40002441406</ele>
        <time>2019-05-16T09:10:59Z</time>
      </trkpt>
      <trkpt lat="44.2751" lon="3.22782">
        <ele>437.40002441406</ele>
        <time>2019-05-16T09:11:04Z</time>
      </trkpt>
      <trkpt lat="44.27505" lon="3.2278">
        <ele>437.79998779297</ele>
        <time>2019-05-16T09:11:06Z</time>
      </trkpt>
      <trkpt lat="44.27489" lon="3.22776">
        <ele>438.79998779297</ele>
        <time>2019-05-16T09:11:12Z</time>
      </trkpt>
      <trkpt lat="44.2747" lon="3.2277">
        <ele>439.79998779297</ele>
        <time>2019-05-16T09:11:19Z</time>
      </trkpt>
      <trkpt lat="44.27448" lon="3.22767">
        <ele>441</ele>
        <time>2019-05-16T09:11:27Z</time>
      </trkpt>
      <trkpt lat="44.27445" lon="3.22767">
        <ele>441</ele>
        <time>2019-05-16T09:11:28Z</time>
      </trkpt>
      <trkpt lat="44.27428" lon="3.2277">
        <ele>442</ele>
        <time>2019-05-16T09:11:34Z</time>
      </trkpt>
      <trkpt lat="44.27425" lon="3.22772">
        <ele>442.20001220703</ele>
        <time>2019-05-16T09:11:35Z</time>
      </trkpt>
      <trkpt lat="44.27414" lon="3.22778">
        <ele>443</ele>
        <time>2019-05-16T09:11:39Z</time>
      </trkpt>
      <trkpt lat="44.27398" lon="3.22789">
        <ele>444.20001220703</ele>
        <time>2019-05-16T09:11:45Z</time>
      </trkpt>
      <trkpt lat="44.27395" lon="3.22791">
        <ele>444.40002441406</ele>
        <time>2019-05-16T09:11:46Z</time>
      </trkpt>
      <trkpt lat="44.27373" lon="3.228">
        <ele>445.40002441406</ele>
        <time>2019-05-16T09:11:52Z</time>
      </trkpt>
      <trkpt lat="44.27366" lon="3.22802">
        <ele>446</ele>
        <time>2019-05-16T09:11:54Z</time>
      </trkpt>
      <trkpt lat="44.2736" lon="3.22803">
        <ele>446.59997558594</ele>
        <time>2019-05-16T09:11:56Z</time>
      </trkpt>
      <trkpt lat="44.27347" lon="3.22807">
        <ele>447.59997558594</ele>
        <time>2019-05-16T09:12:01Z</time>
      </trkpt>
      <trkpt lat="44.27326" lon="3.22814">
        <ele>448.79998779297</ele>
        <time>2019-05-16T09:12:08Z</time>
      </trkpt>
      <trkpt lat="44.27317" lon="3.22816">
        <ele>449.20001220703</ele>
        <time>2019-05-16T09:12:11Z</time>
      </trkpt>
      <trkpt lat="44.27304" lon="3.22821">
        <ele>450</ele>
        <time>2019-05-16T09:12:15Z</time>
      </trkpt>
      <trkpt lat="44.27297" lon="3.22823">
        <ele>450.40002441406</ele>
        <time>2019-05-16T09:12:17Z</time>
      </trkpt>
      <trkpt lat="44.27284" lon="3.22828">
        <ele>451.20001220703</ele>
        <time>2019-05-16T09:12:21Z</time>
      </trkpt>
      <trkpt lat="44.27263" lon="3.22835">
        <ele>452.40002441406</ele>
        <time>2019-05-16T09:12:27Z</time>
      </trkpt>
      <trkpt lat="44.27252" lon="3.22839">
        <ele>453.20001220703</ele>
        <time>2019-05-16T09:12:30Z</time>
      </trkpt>
      <trkpt lat="44.27245" lon="3.22842">
        <ele>453.59997558594</ele>
        <time>2019-05-16T09:12:32Z</time>
      </trkpt>
      <trkpt lat="44.27223" lon="3.2285">
        <ele>454.79998779297</ele>
        <time>2019-05-16T09:12:38Z</time>
      </trkpt>
      <trkpt lat="44.27205" lon="3.22856">
        <ele>456</ele>
        <time>2019-05-16T09:12:43Z</time>
      </trkpt>
      <trkpt lat="44.27194" lon="3.22858">
        <ele>456.79998779297</ele>
        <time>2019-05-16T09:12:46Z</time>
      </trkpt>
      <trkpt lat="44.27191" lon="3.22859">
        <ele>457</ele>
        <time>2019-05-16T09:12:47Z</time>
      </trkpt>
      <trkpt lat="44.27176" lon="3.22861">
        <ele>458</ele>
        <time>2019-05-16T09:12:51Z</time>
      </trkpt>
      <trkpt lat="44.27158" lon="3.22866">
        <ele>459.20001220703</ele>
        <time>2019-05-16T09:12:56Z</time>
      </trkpt>
      <trkpt lat="44.27147" lon="3.22869">
        <ele>459.79998779297</ele>
        <time>2019-05-16T09:12:59Z</time>
      </trkpt>
      <trkpt lat="44.2714" lon="3.22871">
        <ele>460.40002441406</ele>
        <time>2019-05-16T09:13:01Z</time>
      </trkpt>
      <trkpt lat="44.27125" lon="3.22875">
        <ele>461.79998779297</ele>
        <time>2019-05-16T09:13:05Z</time>
      </trkpt>
      <trkpt lat="44.27108" lon="3.22879">
        <ele>462.79998779297</ele>
        <time>2019-05-16T09:13:10Z</time>
      </trkpt>
      <trkpt lat="44.27101" lon="3.2288">
        <ele>463.40002441406</ele>
        <time>2019-05-16T09:13:12Z</time>
      </trkpt>
      <trkpt lat="44.27093" lon="3.22882">
        <ele>463.79998779297</ele>
        <time>2019-05-16T09:13:14Z</time>
      </trkpt>
      <trkpt lat="44.27075" lon="3.22885">
        <ele>464.79998779297</ele>
        <time>2019-05-16T09:13:19Z</time>
      </trkpt>
      <trkpt lat="44.27056" lon="3.22891">
        <ele>466</ele>
        <time>2019-05-16T09:13:24Z</time>
      </trkpt>
      <trkpt lat="44.27053" lon="3.22893">
        <ele>466.20001220703</ele>
        <time>2019-05-16T09:13:25Z</time>
      </trkpt>
      <trkpt lat="44.27038" lon="3.22894">
        <ele>467.20001220703</ele>
        <time>2019-05-16T09:13:29Z</time>
      </trkpt>
      <trkpt lat="44.27023" lon="3.22894">
        <ele>468</ele>
        <time>2019-05-16T09:13:33Z</time>
      </trkpt>
      <trkpt lat="44.2702" lon="3.22894">
        <ele>468.20001220703</ele>
        <time>2019-05-16T09:13:34Z</time>
      </trkpt>
      <trkpt lat="44.27003" lon="3.22897">
        <ele>469.20001220703</ele>
        <time>2019-05-16T09:13:39Z</time>
      </trkpt>
      <trkpt lat="44.27007" lon="3.22905">
        <ele>470.59997558594</ele>
        <time>2019-05-16T09:13:42Z</time>
      </trkpt>
      <trkpt lat="44.27011" lon="3.22906">
        <ele>471</ele>
        <time>2019-05-16T09:13:43Z</time>
      </trkpt>
      <trkpt lat="44.27019" lon="3.22906">
        <ele>471.59997558594</ele>
        <time>2019-05-16T09:13:45Z</time>
      </trkpt>
      <trkpt lat="44.27023" lon="3.22906">
        <ele>471.79998779297</ele>
        <time>2019-05-16T09:13:46Z</time>
      </trkpt>
      <trkpt lat="44.27048" lon="3.22908">
        <ele>473.20001220703</ele>
        <time>2019-05-16T09:13:52Z</time>
      </trkpt>
      <trkpt lat="44.27063" lon="3.2291">
        <ele>474.40002441406</ele>
        <time>2019-05-16T09:13:56Z</time>
      </trkpt>
      <trkpt lat="44.27074" lon="3.22908">
        <ele>475.59997558594</ele>
        <time>2019-05-16T09:13:59Z</time>
      </trkpt>
      <trkpt lat="44.27081" lon="3.22907">
        <ele>476.20001220703</ele>
        <time>2019-05-16T09:14:01Z</time>
      </trkpt>
      <trkpt lat="44.27084" lon="3.22906">
        <ele>476.59997558594</ele>
        <time>2019-05-16T09:14:02Z</time>
      </trkpt>
      <trkpt lat="44.27101" lon="3.22907">
        <ele>477.59997558594</ele>
        <time>2019-05-16T09:14:06Z</time>
      </trkpt>
      <trkpt lat="44.27108" lon="3.22908">
        <ele>478.79998779297</ele>
        <time>2019-05-16T09:14:09Z</time>
      </trkpt>
      <trkpt lat="44.27111" lon="3.2291">
        <ele>479</ele>
        <time>2019-05-16T09:14:10Z</time>
      </trkpt>
      <trkpt lat="44.27122" lon="3.22912">
        <ele>480</ele>
        <time>2019-05-16T09:14:13Z</time>
      </trkpt>
      <trkpt lat="44.27135" lon="3.22915">
        <ele>481.20001220703</ele>
        <time>2019-05-16T09:14:17Z</time>
      </trkpt>
      <trkpt lat="44.27145" lon="3.22916">
        <ele>482</ele>
        <time>2019-05-16T09:14:20Z</time>
      </trkpt>
      <trkpt lat="44.27151" lon="3.22918">
        <ele>482.40002441406</ele>
        <time>2019-05-16T09:14:22Z</time>
      </trkpt>
      <trkpt lat="44.27167" lon="3.2292">
        <ele>483.59997558594</ele>
        <time>2019-05-16T09:14:27Z</time>
      </trkpt>
      <trkpt lat="44.27177" lon="3.22918">
        <ele>484.59997558594</ele>
        <time>2019-05-16T09:14:30Z</time>
      </trkpt>
      <trkpt lat="44.27181" lon="3.22917">
        <ele>484.79998779297</ele>
        <time>2019-05-16T09:14:31Z</time>
      </trkpt>
      <trkpt lat="44.27193" lon="3.22919">
        <ele>485.79998779297</ele>
        <time>2019-05-16T09:14:35Z</time>
      </trkpt>
      <trkpt lat="44.27202" lon="3.22923">
        <ele>487</ele>
        <time>2019-05-16T09:14:38Z</time>
      </trkpt>
      <trkpt lat="44.27205" lon="3.22924">
        <ele>487.20001220703</ele>
        <time>2019-05-16T09:14:39Z</time>
      </trkpt>
      <trkpt lat="44.27221" lon="3.22931">
        <ele>488.40002441406</ele>
        <time>2019-05-16T09:14:44Z</time>
      </trkpt>
      <trkpt lat="44.27237" lon="3.22937">
        <ele>489.59997558594</ele>
        <time>2019-05-16T09:14:49Z</time>
      </trkpt>
      <trkpt lat="44.27249" lon="3.22943">
        <ele>490.79998779297</ele>
        <time>2019-05-16T09:14:53Z</time>
      </trkpt>
      <trkpt lat="44.27262" lon="3.2295">
        <ele>491.79998779297</ele>
        <time>2019-05-16T09:14:57Z</time>
      </trkpt>
      <trkpt lat="44.27271" lon="3.22955">
        <ele>493</ele>
        <time>2019-05-16T09:15:00Z</time>
      </trkpt>
      <trkpt lat="44.27274" lon="3.22957">
        <ele>493.40002441406</ele>
        <time>2019-05-16T09:15:01Z</time>
      </trkpt>
      <trkpt lat="44.2728" lon="3.22962">
        <ele>494</ele>
        <time>2019-05-16T09:15:03Z</time>
      </trkpt>
      <trkpt lat="44.27289" lon="3.22968">
        <ele>495.20001220703</ele>
        <time>2019-05-16T09:15:06Z</time>
      </trkpt>
      <trkpt lat="44.27298" lon="3.22973">
        <ele>496.20001220703</ele>
        <time>2019-05-16T09:15:09Z</time>
      </trkpt>
      <trkpt lat="44.27301" lon="3.22975">
        <ele>496.79998779297</ele>
        <time>2019-05-16T09:15:10Z</time>
      </trkpt>
      <trkpt lat="44.27306" lon="3.22978">
        <ele>497.40002441406</ele>
        <time>2019-05-16T09:15:12Z</time>
      </trkpt>
      <trkpt lat="44.27315" lon="3.22984">
        <ele>498.40002441406</ele>
        <time>2019-05-16T09:15:15Z</time>
      </trkpt>
      <trkpt lat="44.27323" lon="3.2299">
        <ele>499.40002441406</ele>
        <time>2019-05-16T09:15:18Z</time>
      </trkpt>
      <trkpt lat="44.27332" lon="3.22995">
        <ele>500.20001220703</ele>
        <time>2019-05-16T09:15:21Z</time>
      </trkpt>
      <trkpt lat="44.27335" lon="3.22997">
        <ele>500.59997558594</ele>
        <time>2019-05-16T09:15:22Z</time>
      </trkpt>
      <trkpt lat="44.27347" lon="3.23005">
        <ele>502</ele>
        <time>2019-05-16T09:15:26Z</time>
      </trkpt>
      <trkpt lat="44.2736" lon="3.23011">
        <ele>503.20001220703</ele>
        <time>2019-05-16T09:15:30Z</time>
      </trkpt>
      <trkpt lat="44.27368" lon="3.23015">
        <ele>504.40002441406</ele>
        <time>2019-05-16T09:15:33Z</time>
      </trkpt>
      <trkpt lat="44.27371" lon="3.23016">
        <ele>505</ele>
        <time>2019-05-16T09:15:34Z</time>
      </trkpt>
      <trkpt lat="44.27377" lon="3.23019">
        <ele>505.40002441406</ele>
        <time>2019-05-16T09:15:36Z</time>
      </trkpt>
      <trkpt lat="44.27388" lon="3.23024">
        <ele>506.79998779297</ele>
        <time>2019-05-16T09:15:40Z</time>
      </trkpt>
      <trkpt lat="44.274" lon="3.23029">
        <ele>508</ele>
        <time>2019-05-16T09:15:44Z</time>
      </trkpt>
      <trkpt lat="44.27403" lon="3.2303">
        <ele>508.20001220703</ele>
        <time>2019-05-16T09:15:45Z</time>
      </trkpt>
      <trkpt lat="44.2741" lon="3.23033">
        <ele>509.20001220703</ele>
        <time>2019-05-16T09:15:48Z</time>
      </trkpt>
      <trkpt lat="44.27415" lon="3.23035">
        <ele>509.79998779297</ele>
        <time>2019-05-16T09:15:51Z</time>
      </trkpt>
      <trkpt lat="44.27417" lon="3.23038">
        <ele>510.40002441406</ele>
        <time>2019-05-16T09:15:53Z</time>
      </trkpt>
      <trkpt lat="44.27427" lon="3.23045">
        <ele>511.40002441406</ele>
        <time>2019-05-16T09:15:58Z</time>
      </trkpt>
      <trkpt lat="44.27443" lon="3.2306">
        <ele>512.59997558594</ele>
        <time>2019-05-16T09:16:05Z</time>
      </trkpt>
      <trkpt lat="44.27447" lon="3.23065">
        <ele>513</ele>
        <time>2019-05-16T09:16:07Z</time>
      </trkpt>
      <trkpt lat="44.27454" lon="3.23074">
        <ele>513.59997558594</ele>
        <time>2019-05-16T09:16:10Z</time>
      </trkpt>
      <trkpt lat="44.27462" lon="3.23088">
        <ele>514.59997558594</ele>
        <time>2019-05-16T09:16:14Z</time>
      </trkpt>
      <trkpt lat="44.27465" lon="3.23095">
        <ele>515.20001220703</ele>
        <time>2019-05-16T09:16:16Z</time>
      </trkpt>
      <trkpt lat="44.27467" lon="3.23102">
        <ele>516</ele>
        <time>2019-05-16T09:16:18Z</time>
      </trkpt>
      <trkpt lat="44.27473" lon="3.23117">
        <ele>517.20001220703</ele>
        <time>2019-05-16T09:16:22Z</time>
      </trkpt>
      <trkpt lat="44.27481" lon="3.23129">
        <ele>518.40002441406</ele>
        <time>2019-05-16T09:16:26Z</time>
      </trkpt>
      <trkpt lat="44.27494" lon="3.23136">
        <ele>519.40002441406</ele>
        <time>2019-05-16T09:16:30Z</time>
      </trkpt>
      <trkpt lat="44.27503" lon="3.23133">
        <ele>520.59997558594</ele>
        <time>2019-05-16T09:16:33Z</time>
      </trkpt>
      <trkpt lat="44.27509" lon="3.2313">
        <ele>521.40002441406</ele>
        <time>2019-05-16T09:16:35Z</time>
      </trkpt>
      <trkpt lat="44.27512" lon="3.23128">
        <ele>521.59997558594</ele>
        <time>2019-05-16T09:16:36Z</time>
      </trkpt>
      <trkpt lat="44.27523" lon="3.23122">
        <ele>522.79998779297</ele>
        <time>2019-05-16T09:16:40Z</time>
      </trkpt>
      <trkpt lat="44.27536" lon="3.23121">
        <ele>524</ele>
        <time>2019-05-16T09:16:44Z</time>
      </trkpt>
      <trkpt lat="44.27548" lon="3.23124">
        <ele>525.19995117188</ele>
        <time>2019-05-16T09:16:48Z</time>
      </trkpt>
      <trkpt lat="44.27555" lon="3.23128">
        <ele>525.80004882812</ele>
        <time>2019-05-16T09:16:50Z</time>
      </trkpt>
      <trkpt lat="44.2756" lon="3.23134">
        <ele>526.40002441406</ele>
        <time>2019-05-16T09:16:52Z</time>
      </trkpt>
      <trkpt lat="44.27569" lon="3.23148">
        <ele>527.59997558594</ele>
        <time>2019-05-16T09:16:56Z</time>
      </trkpt>
      <trkpt lat="44.27575" lon="3.23161">
        <ele>528.59997558594</ele>
        <time>2019-05-16T09:16:59Z</time>
      </trkpt>
      <trkpt lat="44.2758" lon="3.23175">
        <ele>529.80004882812</ele>
        <time>2019-05-16T09:17:02Z</time>
      </trkpt>
      <trkpt lat="44.27584" lon="3.23188">
        <ele>530.59997558594</ele>
        <time>2019-05-16T09:17:05Z</time>
      </trkpt>
      <trkpt lat="44.27585" lon="3.23191">
        <ele>530.80004882812</ele>
        <time>2019-05-16T09:17:06Z</time>
      </trkpt>
      <trkpt lat="44.27592" lon="3.23207">
        <ele>532</ele>
        <time>2019-05-16T09:17:10Z</time>
      </trkpt>
      <trkpt lat="44.276" lon="3.23218">
        <ele>533</ele>
        <time>2019-05-16T09:17:13Z</time>
      </trkpt>
      <trkpt lat="44.27615" lon="3.23223">
        <ele>534.19995117188</ele>
        <time>2019-05-16T09:17:17Z</time>
      </trkpt>
      <trkpt lat="44.27629" lon="3.23222">
        <ele>535.19995117188</ele>
        <time>2019-05-16T09:17:21Z</time>
      </trkpt>
      <trkpt lat="44.27636" lon="3.23222">
        <ele>535.80004882812</ele>
        <time>2019-05-16T09:17:23Z</time>
      </trkpt>
      <trkpt lat="44.27644" lon="3.23225">
        <ele>536.40002441406</ele>
        <time>2019-05-16T09:17:25Z</time>
      </trkpt>
      <trkpt lat="44.27652" lon="3.23233">
        <ele>537.59997558594</ele>
        <time>2019-05-16T09:17:28Z</time>
      </trkpt>
      <trkpt lat="44.27655" lon="3.23246">
        <ele>538.59997558594</ele>
        <time>2019-05-16T09:17:31Z</time>
      </trkpt>
      <trkpt lat="44.27656" lon="3.23251">
        <ele>539</ele>
        <time>2019-05-16T09:17:32Z</time>
      </trkpt>
      <trkpt lat="44.27658" lon="3.23265">
        <ele>540</ele>
        <time>2019-05-16T09:17:35Z</time>
      </trkpt>
      <trkpt lat="44.2766" lon="3.23285">
        <ele>541.19995117188</ele>
        <time>2019-05-16T09:17:39Z</time>
      </trkpt>
      <trkpt lat="44.27663" lon="3.23299">
        <ele>542.19995117188</ele>
        <time>2019-05-16T09:17:42Z</time>
      </trkpt>
      <trkpt lat="44.27663" lon="3.23303">
        <ele>542.59997558594</ele>
        <time>2019-05-16T09:17:43Z</time>
      </trkpt>
      <trkpt lat="44.27666" lon="3.23317">
        <ele>543.19995117188</ele>
        <time>2019-05-16T09:17:46Z</time>
      </trkpt>
      <trkpt lat="44.2767" lon="3.23334">
        <ele>544.40002441406</ele>
        <time>2019-05-16T09:17:50Z</time>
      </trkpt>
      <trkpt lat="44.27675" lon="3.23352">
        <ele>545.59997558594</ele>
        <time>2019-05-16T09:17:54Z</time>
      </trkpt>
      <trkpt lat="44.2768" lon="3.23369">
        <ele>546.59997558594</ele>
        <time>2019-05-16T09:17:57Z</time>
      </trkpt>
      <trkpt lat="44.27684" lon="3.23388">
        <ele>547.80004882812</ele>
        <time>2019-05-16T09:18:01Z</time>
      </trkpt>
      <trkpt lat="44.2769" lon="3.23407">
        <ele>549</ele>
        <time>2019-05-16T09:18:05Z</time>
      </trkpt>
      <trkpt lat="44.2769" lon="3.23425">
        <ele>550.19995117188</ele>
        <time>2019-05-16T09:18:09Z</time>
      </trkpt>
      <trkpt lat="44.27684" lon="3.23416">
        <ele>551.19995117188</ele>
        <time>2019-05-16T09:18:13Z</time>
      </trkpt>
      <trkpt lat="44.27678" lon="3.23393">
        <ele>552.40002441406</ele>
        <time>2019-05-16T09:18:18Z</time>
      </trkpt>
      <trkpt lat="44.27675" lon="3.23384">
        <ele>553.40002441406</ele>
        <time>2019-05-16T09:18:21Z</time>
      </trkpt>
      <trkpt lat="44.27673" lon="3.2338">
        <ele>553.59997558594</ele>
        <time>2019-05-16T09:18:22Z</time>
      </trkpt>
      <trkpt lat="44.27666" lon="3.23364">
        <ele>555</ele>
        <time>2019-05-16T09:18:26Z</time>
      </trkpt>
      <trkpt lat="44.2766" lon="3.2335">
        <ele>556</ele>
        <time>2019-05-16T09:18:30Z</time>
      </trkpt>
      <trkpt lat="44.27651" lon="3.23335">
        <ele>557</ele>
        <time>2019-05-16T09:18:34Z</time>
      </trkpt>
      <trkpt lat="44.27644" lon="3.23319">
        <ele>558</ele>
        <time>2019-05-16T09:18:38Z</time>
      </trkpt>
      <trkpt lat="44.27636" lon="3.23304">
        <ele>559.19995117188</ele>
        <time>2019-05-16T09:18:42Z</time>
      </trkpt>
      <trkpt lat="44.27628" lon="3.23298">
        <ele>560</ele>
        <time>2019-05-16T09:18:45Z</time>
      </trkpt>
      <trkpt lat="44.27625" lon="3.23297">
        <ele>560.40002441406</ele>
        <time>2019-05-16T09:18:46Z</time>
      </trkpt>
      <trkpt lat="44.27613" lon="3.23298">
        <ele>561.40002441406</ele>
        <time>2019-05-16T09:18:49Z</time>
      </trkpt>
      <trkpt lat="44.27602" lon="3.23302">
        <ele>562.59997558594</ele>
        <time>2019-05-16T09:18:52Z</time>
      </trkpt>
      <trkpt lat="44.27592" lon="3.23304">
        <ele>564</ele>
        <time>2019-05-16T09:18:55Z</time>
      </trkpt>
      <trkpt lat="44.27575" lon="3.23297">
        <ele>565.19995117188</ele>
        <time>2019-05-16T09:19:00Z</time>
      </trkpt>
      <trkpt lat="44.27563" lon="3.23283">
        <ele>566.40002441406</ele>
        <time>2019-05-16T09:19:05Z</time>
      </trkpt>
      <trkpt lat="44.27561" lon="3.23279">
        <ele>566.80004882812</ele>
        <time>2019-05-16T09:19:06Z</time>
      </trkpt>
      <trkpt lat="44.27558" lon="3.23271">
        <ele>567.40002441406</ele>
        <time>2019-05-16T09:19:08Z</time>
      </trkpt>
      <trkpt lat="44.27552" lon="3.23259">
        <ele>568.59997558594</ele>
        <time>2019-05-16T09:19:11Z</time>
      </trkpt>
      <trkpt lat="44.27542" lon="3.23244">
        <ele>569.80004882812</ele>
        <time>2019-05-16T09:19:15Z</time>
      </trkpt>
      <trkpt lat="44.27527" lon="3.23238">
        <ele>570.80004882812</ele>
        <time>2019-05-16T09:19:19Z</time>
      </trkpt>
      <trkpt lat="44.27523" lon="3.23239">
        <ele>571</ele>
        <time>2019-05-16T09:19:20Z</time>
      </trkpt>
      <trkpt lat="44.27512" lon="3.23244">
        <ele>572.40002441406</ele>
        <time>2019-05-16T09:19:23Z</time>
      </trkpt>
      <trkpt lat="44.27504" lon="3.23248">
        <ele>573</ele>
        <time>2019-05-16T09:19:25Z</time>
      </trkpt>
      <trkpt lat="44.27497" lon="3.2325">
        <ele>573.40002441406</ele>
        <time>2019-05-16T09:19:27Z</time>
      </trkpt>
      <trkpt lat="44.27484" lon="3.23256">
        <ele>574.59997558594</ele>
        <time>2019-05-16T09:19:31Z</time>
      </trkpt>
      <trkpt lat="44.27471" lon="3.23262">
        <ele>575.80004882812</ele>
        <time>2019-05-16T09:19:35Z</time>
      </trkpt>
      <trkpt lat="44.27454" lon="3.23265">
        <ele>576.80004882812</ele>
        <time>2019-05-16T09:19:39Z</time>
      </trkpt>
      <trkpt lat="44.27451" lon="3.23265">
        <ele>577.19995117188</ele>
        <time>2019-05-16T09:19:40Z</time>
      </trkpt>
      <trkpt lat="44.27448" lon="3.23264">
        <ele>577.80004882812</ele>
        <time>2019-05-16T09:19:42Z</time>
      </trkpt>
      <trkpt lat="44.27444" lon="3.23262">
        <ele>578</ele>
        <time>2019-05-16T09:19:43Z</time>
      </trkpt>
      <trkpt lat="44.27436" lon="3.23256">
        <ele>579.19995117188</ele>
        <time>2019-05-16T09:19:46Z</time>
      </trkpt>
      <trkpt lat="44.27431" lon="3.23251">
        <ele>580</ele>
        <time>2019-05-16T09:19:48Z</time>
      </trkpt>
      <trkpt lat="44.27429" lon="3.23248">
        <ele>580.59997558594</ele>
        <time>2019-05-16T09:19:49Z</time>
      </trkpt>
      <trkpt lat="44.27421" lon="3.2324">
        <ele>582</ele>
        <time>2019-05-16T09:19:52Z</time>
      </trkpt>
      <trkpt lat="44.27409" lon="3.23231">
        <ele>583.19995117188</ele>
        <time>2019-05-16T09:19:56Z</time>
      </trkpt>
      <trkpt lat="44.27402" lon="3.23228">
        <ele>583.59997558594</ele>
        <time>2019-05-16T09:19:58Z</time>
      </trkpt>
      <trkpt lat="44.27396" lon="3.23226">
        <ele>584.40002441406</ele>
        <time>2019-05-16T09:20:00Z</time>
      </trkpt>
      <trkpt lat="44.27383" lon="3.23221">
        <ele>585.40002441406</ele>
        <time>2019-05-16T09:20:04Z</time>
      </trkpt>
      <trkpt lat="44.27377" lon="3.23218">
        <ele>585.80004882812</ele>
        <time>2019-05-16T09:20:06Z</time>
      </trkpt>
      <trkpt lat="44.27364" lon="3.23213">
        <ele>586.40002441406</ele>
        <time>2019-05-16T09:20:10Z</time>
      </trkpt>
      <trkpt lat="44.27351" lon="3.23208">
        <ele>587.59997558594</ele>
        <time>2019-05-16T09:20:14Z</time>
      </trkpt>
      <trkpt lat="44.27342" lon="3.23206">
        <ele>588.59997558594</ele>
        <time>2019-05-16T09:20:17Z</time>
      </trkpt>
      <trkpt lat="44.27339" lon="3.23205">
        <ele>588.80004882812</ele>
        <time>2019-05-16T09:20:18Z</time>
      </trkpt>
      <trkpt lat="44.2733" lon="3.23201">
        <ele>590</ele>
        <time>2019-05-16T09:20:21Z</time>
      </trkpt>
      <trkpt lat="44.27321" lon="3.23196">
        <ele>590.80004882812</ele>
        <time>2019-05-16T09:20:24Z</time>
      </trkpt>
      <trkpt lat="44.27318" lon="3.23194">
        <ele>591</ele>
        <time>2019-05-16T09:20:25Z</time>
      </trkpt>
      <trkpt lat="44.27307" lon="3.23186">
        <ele>592.19995117188</ele>
        <time>2019-05-16T09:20:29Z</time>
      </trkpt>
      <trkpt lat="44.27298" lon="3.23182">
        <ele>593.19995117188</ele>
        <time>2019-05-16T09:20:32Z</time>
      </trkpt>
      <trkpt lat="44.27295" lon="3.23181">
        <ele>593.40002441406</ele>
        <time>2019-05-16T09:20:33Z</time>
      </trkpt>
      <trkpt lat="44.27285" lon="3.23179">
        <ele>594.59997558594</ele>
        <time>2019-05-16T09:20:37Z</time>
      </trkpt>
      <trkpt lat="44.27276" lon="3.23176">
        <ele>595.40002441406</ele>
        <time>2019-05-16T09:20:40Z</time>
      </trkpt>
      <trkpt lat="44.27273" lon="3.23175">
        <ele>595.59997558594</ele>
        <time>2019-05-16T09:20:41Z</time>
      </trkpt>
      <trkpt lat="44.27257" lon="3.23167">
        <ele>596.80004882812</ele>
        <time>2019-05-16T09:20:46Z</time>
      </trkpt>
      <trkpt lat="44.27247" lon="3.23162">
        <ele>598</ele>
        <time>2019-05-16T09:20:49Z</time>
      </trkpt>
      <trkpt lat="44.27239" lon="3.2316">
        <ele>598.59997558594</ele>
        <time>2019-05-16T09:20:51Z</time>
      </trkpt>
      <trkpt lat="44.27232" lon="3.23159">
        <ele>599.19995117188</ele>
        <time>2019-05-16T09:20:53Z</time>
      </trkpt>
      <trkpt lat="44.27221" lon="3.23159">
        <ele>600.19995117188</ele>
        <time>2019-05-16T09:20:56Z</time>
      </trkpt>
      <trkpt lat="44.27213" lon="3.23159">
        <ele>600.59997558594</ele>
        <time>2019-05-16T09:20:58Z</time>
      </trkpt>
      <trkpt lat="44.27203" lon="3.2316">
        <ele>601.40002441406</ele>
        <time>2019-05-16T09:21:01Z</time>
      </trkpt>
      <trkpt lat="44.27189" lon="3.23159">
        <ele>602.59997558594</ele>
        <time>2019-05-16T09:21:05Z</time>
      </trkpt>
      <trkpt lat="44.27182" lon="3.23159">
        <ele>603.19995117188</ele>
        <time>2019-05-16T09:21:07Z</time>
      </trkpt>
      <trkpt lat="44.27175" lon="3.23159">
        <ele>603.80004882812</ele>
        <time>2019-05-16T09:21:09Z</time>
      </trkpt>
      <trkpt lat="44.27162" lon="3.2316">
        <ele>605</ele>
        <time>2019-05-16T09:21:13Z</time>
      </trkpt>
      <trkpt lat="44.27148" lon="3.23162">
        <ele>606.40002441406</ele>
        <time>2019-05-16T09:21:17Z</time>
      </trkpt>
      <trkpt lat="44.27135" lon="3.23164">
        <ele>607.40002441406</ele>
        <time>2019-05-16T09:21:21Z</time>
      </trkpt>
      <trkpt lat="44.27121" lon="3.23167">
        <ele>608.80004882812</ele>
        <time>2019-05-16T09:21:25Z</time>
      </trkpt>
      <trkpt lat="44.27114" lon="3.2317">
        <ele>609</ele>
        <time>2019-05-16T09:21:27Z</time>
      </trkpt>
      <trkpt lat="44.27109" lon="3.23175">
        <ele>609.59997558594</ele>
        <time>2019-05-16T09:21:29Z</time>
      </trkpt>
      <trkpt lat="44.27099" lon="3.23186">
        <ele>610.80004882812</ele>
        <time>2019-05-16T09:21:33Z</time>
      </trkpt>
      <trkpt lat="44.27097" lon="3.23189">
        <ele>611.40002441406</ele>
        <time>2019-05-16T09:21:34Z</time>
      </trkpt>
      <trkpt lat="44.2709" lon="3.23197">
        <ele>612</ele>
        <time>2019-05-16T09:21:37Z</time>
      </trkpt>
      <trkpt lat="44.2708" lon="3.23207">
        <ele>613.19995117188</ele>
        <time>2019-05-16T09:21:41Z</time>
      </trkpt>
      <trkpt lat="44.27074" lon="3.23213">
        <ele>613.80004882812</ele>
        <time>2019-05-16T09:21:43Z</time>
      </trkpt>
      <trkpt lat="44.27069" lon="3.23218">
        <ele>614.40002441406</ele>
        <time>2019-05-16T09:21:45Z</time>
      </trkpt>
      <trkpt lat="44.27063" lon="3.23222">
        <ele>615.40002441406</ele>
        <time>2019-05-16T09:21:47Z</time>
      </trkpt>
      <trkpt lat="44.2705" lon="3.2323">
        <ele>616.80004882812</ele>
        <time>2019-05-16T09:21:51Z</time>
      </trkpt>
      <trkpt lat="44.27041" lon="3.23236">
        <ele>617.80004882812</ele>
        <time>2019-05-16T09:21:54Z</time>
      </trkpt>
      <trkpt lat="44.27037" lon="3.23238">
        <ele>618</ele>
        <time>2019-05-16T09:21:55Z</time>
      </trkpt>
      <trkpt lat="44.27021" lon="3.23248">
        <ele>619</ele>
        <time>2019-05-16T09:22:00Z</time>
      </trkpt>
      <trkpt lat="44.2701" lon="3.2325">
        <ele>620</ele>
        <time>2019-05-16T09:22:03Z</time>
      </trkpt>
      <trkpt lat="44.27006" lon="3.2325">
        <ele>620.40002441406</ele>
        <time>2019-05-16T09:22:04Z</time>
      </trkpt>
      <trkpt lat="44.26991" lon="3.23248">
        <ele>621.80004882812</ele>
        <time>2019-05-16T09:22:08Z</time>
      </trkpt>
      <trkpt lat="44.26981" lon="3.23244">
        <ele>622.59997558594</ele>
        <time>2019-05-16T09:22:11Z</time>
      </trkpt>
      <trkpt lat="44.26978" lon="3.23243">
        <ele>623</ele>
        <time>2019-05-16T09:22:12Z</time>
      </trkpt>
      <trkpt lat="44.26971" lon="3.23239">
        <ele>624</ele>
        <time>2019-05-16T09:22:14Z</time>
      </trkpt>
      <trkpt lat="44.26959" lon="3.23231">
        <ele>625</ele>
        <time>2019-05-16T09:22:18Z</time>
      </trkpt>
      <trkpt lat="44.26953" lon="3.23228">
        <ele>625.59997558594</ele>
        <time>2019-05-16T09:22:20Z</time>
      </trkpt>
      <trkpt lat="44.26945" lon="3.23222">
        <ele>626.19995117188</ele>
        <time>2019-05-16T09:22:23Z</time>
      </trkpt>
      <trkpt lat="44.26933" lon="3.23214">
        <ele>627.40002441406</ele>
        <time>2019-05-16T09:22:27Z</time>
      </trkpt>
      <trkpt lat="44.2693" lon="3.23213">
        <ele>627.80004882812</ele>
        <time>2019-05-16T09:22:28Z</time>
      </trkpt>
      <trkpt lat="44.26917" lon="3.23205">
        <ele>628.59997558594</ele>
        <time>2019-05-16T09:22:32Z</time>
      </trkpt>
      <trkpt lat="44.26902" lon="3.23194">
        <ele>629.59997558594</ele>
        <time>2019-05-16T09:22:37Z</time>
      </trkpt>
      <trkpt lat="44.2689" lon="3.23187">
        <ele>630.59997558594</ele>
        <time>2019-05-16T09:22:41Z</time>
      </trkpt>
      <trkpt lat="44.26879" lon="3.23184">
        <ele>631.59997558594</ele>
        <time>2019-05-16T09:22:44Z</time>
      </trkpt>
      <trkpt lat="44.26875" lon="3.23184">
        <ele>632.19995117188</ele>
        <time>2019-05-16T09:22:45Z</time>
      </trkpt>
      <trkpt lat="44.26864" lon="3.2319">
        <ele>633.19995117188</ele>
        <time>2019-05-16T09:22:48Z</time>
      </trkpt>
      <trkpt lat="44.26861" lon="3.23193">
        <ele>633.40002441406</ele>
        <time>2019-05-16T09:22:49Z</time>
      </trkpt>
      <trkpt lat="44.26853" lon="3.23203">
        <ele>634.40002441406</ele>
        <time>2019-05-16T09:22:52Z</time>
      </trkpt>
      <trkpt lat="44.26847" lon="3.23214">
        <ele>635.40002441406</ele>
        <time>2019-05-16T09:22:55Z</time>
      </trkpt>
      <trkpt lat="44.2684" lon="3.23229">
        <ele>636.59997558594</ele>
        <time>2019-05-16T09:22:59Z</time>
      </trkpt>
      <trkpt lat="44.26838" lon="3.23243">
        <ele>637.59997558594</ele>
        <time>2019-05-16T09:23:02Z</time>
      </trkpt>
      <trkpt lat="44.26837" lon="3.23248">
        <ele>638</ele>
        <time>2019-05-16T09:23:03Z</time>
      </trkpt>
      <trkpt lat="44.26831" lon="3.23262">
        <ele>638.80004882812</ele>
        <time>2019-05-16T09:23:07Z</time>
      </trkpt>
      <trkpt lat="44.26829" lon="3.23265">
        <ele>639</ele>
        <time>2019-05-16T09:23:08Z</time>
      </trkpt>
      <trkpt lat="44.26821" lon="3.23271">
        <ele>640</ele>
        <time>2019-05-16T09:23:11Z</time>
      </trkpt>
      <trkpt lat="44.26806" lon="3.23271">
        <ele>641.19995117188</ele>
        <time>2019-05-16T09:23:16Z</time>
      </trkpt>
      <trkpt lat="44.26803" lon="3.23271">
        <ele>641.40002441406</ele>
        <time>2019-05-16T09:23:17Z</time>
      </trkpt>
      <trkpt lat="44.26794" lon="3.23267">
        <ele>642.19995117188</ele>
        <time>2019-05-16T09:23:20Z</time>
      </trkpt>
      <trkpt lat="44.26785" lon="3.23264">
        <ele>643.19995117188</ele>
        <time>2019-05-16T09:23:23Z</time>
      </trkpt>
      <trkpt lat="44.26776" lon="3.23262">
        <ele>644.40002441406</ele>
        <time>2019-05-16T09:23:26Z</time>
      </trkpt>
      <trkpt lat="44.26763" lon="3.23258">
        <ele>645.59997558594</ele>
        <time>2019-05-16T09:23:30Z</time>
      </trkpt>
      <trkpt lat="44.2675" lon="3.23257">
        <ele>646.19995117188</ele>
        <time>2019-05-16T09:23:34Z</time>
      </trkpt>
      <trkpt lat="44.26743" lon="3.23257">
        <ele>646.80004882812</ele>
        <time>2019-05-16T09:23:36Z</time>
      </trkpt>
      <trkpt lat="44.26729" lon="3.23256">
        <ele>648</ele>
        <time>2019-05-16T09:23:40Z</time>
      </trkpt>
      <trkpt lat="44.26723" lon="3.23256">
        <ele>648.40002441406</ele>
        <time>2019-05-16T09:23:42Z</time>
      </trkpt>
      <trkpt lat="44.26713" lon="3.23256">
        <ele>649.19995117188</ele>
        <time>2019-05-16T09:23:45Z</time>
      </trkpt>
      <trkpt lat="44.26698" lon="3.23256">
        <ele>650.40002441406</ele>
        <time>2019-05-16T09:23:49Z</time>
      </trkpt>
      <trkpt lat="44.26688" lon="3.23256">
        <ele>651.19995117188</ele>
        <time>2019-05-16T09:23:52Z</time>
      </trkpt>
      <trkpt lat="44.26685" lon="3.23256">
        <ele>651.40002441406</ele>
        <time>2019-05-16T09:23:53Z</time>
      </trkpt>
      <trkpt lat="44.26672" lon="3.2326">
        <ele>652.40002441406</ele>
        <time>2019-05-16T09:23:57Z</time>
      </trkpt>
      <trkpt lat="44.26662" lon="3.23264">
        <ele>653.19995117188</ele>
        <time>2019-05-16T09:24:00Z</time>
      </trkpt>
      <trkpt lat="44.26659" lon="3.23266">
        <ele>653.40002441406</ele>
        <time>2019-05-16T09:24:01Z</time>
      </trkpt>
      <trkpt lat="44.26644" lon="3.23277">
        <ele>654.59997558594</ele>
        <time>2019-05-16T09:24:06Z</time>
      </trkpt>
      <trkpt lat="44.26638" lon="3.23282">
        <ele>655.80004882812</ele>
        <time>2019-05-16T09:24:08Z</time>
      </trkpt>
      <trkpt lat="44.26636" lon="3.23285">
        <ele>656.19995117188</ele>
        <time>2019-05-16T09:24:09Z</time>
      </trkpt>
      <trkpt lat="44.26628" lon="3.23294">
        <ele>657.19995117188</ele>
        <time>2019-05-16T09:24:12Z</time>
      </trkpt>
      <trkpt lat="44.26623" lon="3.233">
        <ele>657.59997558594</ele>
        <time>2019-05-16T09:24:14Z</time>
      </trkpt>
      <trkpt lat="44.26615" lon="3.23309">
        <ele>658.40002441406</ele>
        <time>2019-05-16T09:24:17Z</time>
      </trkpt>
      <trkpt lat="44.26605" lon="3.23321">
        <ele>659.59997558594</ele>
        <time>2019-05-16T09:24:21Z</time>
      </trkpt>
      <trkpt lat="44.26602" lon="3.23324">
        <ele>659.80004882812</ele>
        <time>2019-05-16T09:24:22Z</time>
      </trkpt>
      <trkpt lat="44.26592" lon="3.23328">
        <ele>660.80004882812</ele>
        <time>2019-05-16T09:24:25Z</time>
      </trkpt>
      <trkpt lat="44.26582" lon="3.2333">
        <ele>661.80004882812</ele>
        <time>2019-05-16T09:24:28Z</time>
      </trkpt>
      <trkpt lat="44.26579" lon="3.2333">
        <ele>662</ele>
        <time>2019-05-16T09:24:29Z</time>
      </trkpt>
      <trkpt lat="44.26565" lon="3.23327">
        <ele>663.19995117188</ele>
        <time>2019-05-16T09:24:33Z</time>
      </trkpt>
      <trkpt lat="44.26562" lon="3.23326">
        <ele>663.59997558594</ele>
        <time>2019-05-16T09:24:34Z</time>
      </trkpt>
      <trkpt lat="44.26551" lon="3.23323">
        <ele>664.80004882812</ele>
        <time>2019-05-16T09:24:37Z</time>
      </trkpt>
      <trkpt lat="44.26542" lon="3.2332">
        <ele>665.80004882812</ele>
        <time>2019-05-16T09:24:40Z</time>
      </trkpt>
      <trkpt lat="44.26536" lon="3.23318">
        <ele>666.19995117188</ele>
        <time>2019-05-16T09:24:42Z</time>
      </trkpt>
      <trkpt lat="44.26529" lon="3.23316">
        <ele>666.80004882812</ele>
        <time>2019-05-16T09:24:44Z</time>
      </trkpt>
      <trkpt lat="44.2652" lon="3.23313">
        <ele>667.80004882812</ele>
        <time>2019-05-16T09:24:47Z</time>
      </trkpt>
      <trkpt lat="44.26506" lon="3.2331">
        <ele>669.19995117188</ele>
        <time>2019-05-16T09:24:51Z</time>
      </trkpt>
      <trkpt lat="44.26497" lon="3.23307">
        <ele>670.40002441406</ele>
        <time>2019-05-16T09:24:54Z</time>
      </trkpt>
      <trkpt lat="44.26481" lon="3.23305">
        <ele>671.59997558594</ele>
        <time>2019-05-16T09:24:59Z</time>
      </trkpt>
      <trkpt lat="44.26464" lon="3.23304">
        <ele>672.80004882812</ele>
        <time>2019-05-16T09:25:04Z</time>
      </trkpt>
      <trkpt lat="44.26453" lon="3.23305">
        <ele>673.80004882812</ele>
        <time>2019-05-16T09:25:07Z</time>
      </trkpt>
      <trkpt lat="44.26436" lon="3.23308">
        <ele>675</ele>
        <time>2019-05-16T09:25:12Z</time>
      </trkpt>
      <trkpt lat="44.26423" lon="3.23312">
        <ele>676</ele>
        <time>2019-05-16T09:25:16Z</time>
      </trkpt>
      <trkpt lat="44.2641" lon="3.23318">
        <ele>677</ele>
        <time>2019-05-16T09:25:20Z</time>
      </trkpt>
      <trkpt lat="44.26398" lon="3.23326">
        <ele>678</ele>
        <time>2019-05-16T09:25:24Z</time>
      </trkpt>
      <trkpt lat="44.26396" lon="3.23329">
        <ele>678.59997558594</ele>
        <time>2019-05-16T09:25:25Z</time>
      </trkpt>
      <trkpt lat="44.26392" lon="3.23339">
        <ele>679.40002441406</ele>
        <time>2019-05-16T09:25:28Z</time>
      </trkpt>
      <trkpt lat="44.2639" lon="3.23351">
        <ele>680.40002441406</ele>
        <time>2019-05-16T09:25:31Z</time>
      </trkpt>
      <trkpt lat="44.26388" lon="3.23368">
        <ele>681.80004882812</ele>
        <time>2019-05-16T09:25:35Z</time>
      </trkpt>
      <trkpt lat="44.26386" lon="3.23384">
        <ele>682.40002441406</ele>
        <time>2019-05-16T09:25:39Z</time>
      </trkpt>
      <trkpt lat="44.26385" lon="3.23392">
        <ele>682.80004882812</ele>
        <time>2019-05-16T09:25:41Z</time>
      </trkpt>
      <trkpt lat="44.26384" lon="3.23404">
        <ele>683.40002441406</ele>
        <time>2019-05-16T09:25:44Z</time>
      </trkpt>
      <trkpt lat="44.26383" lon="3.23411">
        <ele>684.19995117188</ele>
        <time>2019-05-16T09:25:46Z</time>
      </trkpt>
      <trkpt lat="44.2638" lon="3.2343">
        <ele>685.19995117188</ele>
        <time>2019-05-16T09:25:50Z</time>
      </trkpt>
      <trkpt lat="44.2638" lon="3.23434">
        <ele>685.40002441406</ele>
        <time>2019-05-16T09:25:51Z</time>
      </trkpt>
      <trkpt lat="44.26375" lon="3.23446">
        <ele>686.19995117188</ele>
        <time>2019-05-16T09:25:54Z</time>
      </trkpt>
      <trkpt lat="44.2637" lon="3.23451">
        <ele>686.80004882812</ele>
        <time>2019-05-16T09:25:56Z</time>
      </trkpt>
      <trkpt lat="44.26363" lon="3.23454">
        <ele>687.19995117188</ele>
        <time>2019-05-16T09:25:58Z</time>
      </trkpt>
      <trkpt lat="44.26349" lon="3.23454">
        <ele>688.19995117188</ele>
        <time>2019-05-16T09:26:02Z</time>
      </trkpt>
      <trkpt lat="44.26338" lon="3.23454">
        <ele>689.40002441406</ele>
        <time>2019-05-16T09:26:05Z</time>
      </trkpt>
      <trkpt lat="44.26325" lon="3.23453">
        <ele>690.80004882812</ele>
        <time>2019-05-16T09:26:09Z</time>
      </trkpt>
      <trkpt lat="44.26322" lon="3.23453">
        <ele>691.19995117188</ele>
        <time>2019-05-16T09:26:10Z</time>
      </trkpt>
      <trkpt lat="44.26316" lon="3.23453">
        <ele>691.80004882812</ele>
        <time>2019-05-16T09:26:12Z</time>
      </trkpt>
      <trkpt lat="44.26307" lon="3.23454">
        <ele>692.80004882812</ele>
        <time>2019-05-16T09:26:15Z</time>
      </trkpt>
      <trkpt lat="44.26298" lon="3.2346">
        <ele>694</ele>
        <time>2019-05-16T09:26:18Z</time>
      </trkpt>
      <trkpt lat="44.26289" lon="3.23474">
        <ele>695.19995117188</ele>
        <time>2019-05-16T09:26:22Z</time>
      </trkpt>
      <trkpt lat="44.26287" lon="3.23478">
        <ele>695.59997558594</ele>
        <time>2019-05-16T09:26:23Z</time>
      </trkpt>
      <trkpt lat="44.26281" lon="3.23489">
        <ele>696.40002441406</ele>
        <time>2019-05-16T09:26:26Z</time>
      </trkpt>
      <trkpt lat="44.26277" lon="3.23496">
        <ele>697</ele>
        <time>2019-05-16T09:26:28Z</time>
      </trkpt>
      <trkpt lat="44.26271" lon="3.23506">
        <ele>697.59997558594</ele>
        <time>2019-05-16T09:26:31Z</time>
      </trkpt>
      <trkpt lat="44.26264" lon="3.23517">
        <ele>698.80004882812</ele>
        <time>2019-05-16T09:26:34Z</time>
      </trkpt>
      <trkpt lat="44.26262" lon="3.23521">
        <ele>699</ele>
        <time>2019-05-16T09:26:35Z</time>
      </trkpt>
      <trkpt lat="44.26256" lon="3.23531">
        <ele>699.80004882812</ele>
        <time>2019-05-16T09:26:38Z</time>
      </trkpt>
      <trkpt lat="44.26246" lon="3.23543">
        <ele>700.80004882812</ele>
        <time>2019-05-16T09:26:42Z</time>
      </trkpt>
      <trkpt lat="44.26243" lon="3.23545">
        <ele>701.19995117188</ele>
        <time>2019-05-16T09:26:43Z</time>
      </trkpt>
      <trkpt lat="44.26232" lon="3.23554">
        <ele>702</ele>
        <time>2019-05-16T09:26:47Z</time>
      </trkpt>
      <trkpt lat="44.26223" lon="3.2356">
        <ele>703</ele>
        <time>2019-05-16T09:26:50Z</time>
      </trkpt>
      <trkpt lat="44.2622" lon="3.23561">
        <ele>703.40002441406</ele>
        <time>2019-05-16T09:26:51Z</time>
      </trkpt>
      <trkpt lat="44.26207" lon="3.23563">
        <ele>704.40002441406</ele>
        <time>2019-05-16T09:26:55Z</time>
      </trkpt>
      <trkpt lat="44.26204" lon="3.23563">
        <ele>704.59997558594</ele>
        <time>2019-05-16T09:26:56Z</time>
      </trkpt>
      <trkpt lat="44.26194" lon="3.23563">
        <ele>705.59997558594</ele>
        <time>2019-05-16T09:26:59Z</time>
      </trkpt>
      <trkpt lat="44.26184" lon="3.23564">
        <ele>706.80004882812</ele>
        <time>2019-05-16T09:27:02Z</time>
      </trkpt>
      <trkpt lat="44.26177" lon="3.23565">
        <ele>707.19995117188</ele>
        <time>2019-05-16T09:27:04Z</time>
      </trkpt>
      <trkpt lat="44.26171" lon="3.23567">
        <ele>707.80004882812</ele>
        <time>2019-05-16T09:27:06Z</time>
      </trkpt>
      <trkpt lat="44.26157" lon="3.2357">
        <ele>709</ele>
        <time>2019-05-16T09:27:10Z</time>
      </trkpt>
      <trkpt lat="44.26147" lon="3.23572">
        <ele>710.19995117188</ele>
        <time>2019-05-16T09:27:13Z</time>
      </trkpt>
      <trkpt lat="44.26144" lon="3.23573">
        <ele>710.40002441406</ele>
        <time>2019-05-16T09:27:14Z</time>
      </trkpt>
      <trkpt lat="44.26137" lon="3.23574">
        <ele>711.19995117188</ele>
        <time>2019-05-16T09:27:16Z</time>
      </trkpt>
      <trkpt lat="44.2612" lon="3.23577">
        <ele>712.40002441406</ele>
        <time>2019-05-16T09:27:21Z</time>
      </trkpt>
      <trkpt lat="44.26116" lon="3.23577">
        <ele>712.80004882812</ele>
        <time>2019-05-16T09:27:22Z</time>
      </trkpt>
      <trkpt lat="44.26104" lon="3.23573">
        <ele>713.80004882812</ele>
        <time>2019-05-16T09:27:26Z</time>
      </trkpt>
      <trkpt lat="44.26101" lon="3.23571">
        <ele>714</ele>
        <time>2019-05-16T09:27:27Z</time>
      </trkpt>
      <trkpt lat="44.26093" lon="3.23563">
        <ele>715.19995117188</ele>
        <time>2019-05-16T09:27:30Z</time>
      </trkpt>
      <trkpt lat="44.26082" lon="3.23553">
        <ele>716.59997558594</ele>
        <time>2019-05-16T09:27:34Z</time>
      </trkpt>
      <trkpt lat="44.26069" lon="3.23543">
        <ele>717.59997558594</ele>
        <time>2019-05-16T09:27:38Z</time>
      </trkpt>
      <trkpt lat="44.26066" lon="3.23542">
        <ele>718</ele>
        <time>2019-05-16T09:27:39Z</time>
      </trkpt>
      <trkpt lat="44.26063" lon="3.23543">
        <ele>718.19995117188</ele>
        <time>2019-05-16T09:27:40Z</time>
      </trkpt>
      <trkpt lat="44.2606" lon="3.23545">
        <ele>718.80004882812</ele>
        <time>2019-05-16T09:27:42Z</time>
      </trkpt>
      <trkpt lat="44.26066" lon="3.23549">
        <ele>719.40002441406</ele>
        <time>2019-05-16T09:27:44Z</time>
      </trkpt>
      <trkpt lat="44.26073" lon="3.23554">
        <ele>719.80004882812</ele>
        <time>2019-05-16T09:27:46Z</time>
      </trkpt>
      <trkpt lat="44.26077" lon="3.23557">
        <ele>720.19995117188</ele>
        <time>2019-05-16T09:27:47Z</time>
      </trkpt>
      <trkpt lat="44.26086" lon="3.23566">
        <ele>721</ele>
        <time>2019-05-16T09:27:50Z</time>
      </trkpt>
      <trkpt lat="44.26098" lon="3.23577">
        <ele>721.40002441406</ele>
        <time>2019-05-16T09:27:54Z</time>
      </trkpt>
      <trkpt lat="44.26107" lon="3.23586">
        <ele>722.19995117188</ele>
        <time>2019-05-16T09:27:57Z</time>
      </trkpt>
      <trkpt lat="44.26114" lon="3.2359">
        <ele>723.40002441406</ele>
        <time>2019-05-16T09:27:59Z</time>
      </trkpt>
      <trkpt lat="44.26121" lon="3.23594">
        <ele>724</ele>
        <time>2019-05-16T09:28:01Z</time>
      </trkpt>
      <trkpt lat="44.26126" lon="3.236">
        <ele>724.59997558594</ele>
        <time>2019-05-16T09:28:03Z</time>
      </trkpt>
      <trkpt lat="44.2614" lon="3.23601">
        <ele>725.59997558594</ele>
        <time>2019-05-16T09:28:06Z</time>
      </trkpt>
      <trkpt lat="44.26155" lon="3.23602">
        <ele>727</ele>
        <time>2019-05-16T09:28:11Z</time>
      </trkpt>
      <trkpt lat="44.26168" lon="3.23603">
        <ele>728.19995117188</ele>
        <time>2019-05-16T09:28:15Z</time>
      </trkpt>
      <trkpt lat="44.26182" lon="3.23604">
        <ele>729.40002441406</ele>
        <time>2019-05-16T09:28:19Z</time>
      </trkpt>
      <trkpt lat="44.26194" lon="3.23607">
        <ele>730.80004882812</ele>
        <time>2019-05-16T09:28:23Z</time>
      </trkpt>
      <trkpt lat="44.262" lon="3.2361">
        <ele>731.40002441406</ele>
        <time>2019-05-16T09:28:25Z</time>
      </trkpt>
      <trkpt lat="44.26208" lon="3.23614">
        <ele>732.40002441406</ele>
        <time>2019-05-16T09:28:27Z</time>
      </trkpt>
      <trkpt lat="44.26218" lon="3.23619">
        <ele>733.40002441406</ele>
        <time>2019-05-16T09:28:31Z</time>
      </trkpt>
      <trkpt lat="44.26221" lon="3.23619">
        <ele>733.80004882812</ele>
        <time>2019-05-16T09:28:32Z</time>
      </trkpt>
      <trkpt lat="44.26231" lon="3.23617">
        <ele>734.59997558594</ele>
        <time>2019-05-16T09:28:35Z</time>
      </trkpt>
      <trkpt lat="44.26238" lon="3.23615">
        <ele>735.19995117188</ele>
        <time>2019-05-16T09:28:37Z</time>
      </trkpt>
      <trkpt lat="44.26245" lon="3.23612">
        <ele>735.80004882812</ele>
        <time>2019-05-16T09:28:39Z</time>
      </trkpt>
      <trkpt lat="44.26258" lon="3.23605">
        <ele>736.80004882812</ele>
        <time>2019-05-16T09:28:43Z</time>
      </trkpt>
      <trkpt lat="44.26267" lon="3.23599">
        <ele>737.59997558594</ele>
        <time>2019-05-16T09:28:46Z</time>
      </trkpt>
      <trkpt lat="44.2627" lon="3.23597">
        <ele>737.80004882812</ele>
        <time>2019-05-16T09:28:47Z</time>
      </trkpt>
      <trkpt lat="44.26282" lon="3.23588">
        <ele>739</ele>
        <time>2019-05-16T09:28:51Z</time>
      </trkpt>
      <trkpt lat="44.26295" lon="3.23578">
        <ele>740.19995117188</ele>
        <time>2019-05-16T09:28:55Z</time>
      </trkpt>
      <trkpt lat="44.26302" lon="3.23571">
        <ele>741.59997558594</ele>
        <time>2019-05-16T09:28:58Z</time>
      </trkpt>
      <trkpt lat="44.26313" lon="3.23561">
        <ele>742.80004882812</ele>
        <time>2019-05-16T09:29:02Z</time>
      </trkpt>
      <trkpt lat="44.26321" lon="3.23555">
        <ele>743.59997558594</ele>
        <time>2019-05-16T09:29:05Z</time>
      </trkpt>
      <trkpt lat="44.26324" lon="3.23553">
        <ele>744</ele>
        <time>2019-05-16T09:29:06Z</time>
      </trkpt>
      <trkpt lat="44.26337" lon="3.23548">
        <ele>744.80004882812</ele>
        <time>2019-05-16T09:29:10Z</time>
      </trkpt>
      <trkpt lat="44.26344" lon="3.23547">
        <ele>745.40002441406</ele>
        <time>2019-05-16T09:29:12Z</time>
      </trkpt>
      <trkpt lat="44.2635" lon="3.23547">
        <ele>746</ele>
        <time>2019-05-16T09:29:14Z</time>
      </trkpt>
      <trkpt lat="44.26364" lon="3.23549">
        <ele>747.40002441406</ele>
        <time>2019-05-16T09:29:18Z</time>
      </trkpt>
      <trkpt lat="44.26367" lon="3.23551">
        <ele>747.80004882812</ele>
        <time>2019-05-16T09:29:19Z</time>
      </trkpt>
      <trkpt lat="44.26374" lon="3.23553">
        <ele>748.40002441406</ele>
        <time>2019-05-16T09:29:21Z</time>
      </trkpt>
      <trkpt lat="44.26387" lon="3.2356">
        <ele>750</ele>
        <time>2019-05-16T09:29:25Z</time>
      </trkpt>
      <trkpt lat="44.264" lon="3.23559">
        <ele>751.19995117188</ele>
        <time>2019-05-16T09:29:29Z</time>
      </trkpt>
      <trkpt lat="44.26403" lon="3.23558">
        <ele>751.40002441406</ele>
        <time>2019-05-16T09:29:30Z</time>
      </trkpt>
      <trkpt lat="44.26413" lon="3.23552">
        <ele>752.19995117188</ele>
        <time>2019-05-16T09:29:33Z</time>
      </trkpt>
      <trkpt lat="44.26425" lon="3.23544">
        <ele>753.59997558594</ele>
        <time>2019-05-16T09:29:37Z</time>
      </trkpt>
      <trkpt lat="44.26437" lon="3.23531">
        <ele>754.59997558594</ele>
        <time>2019-05-16T09:29:41Z</time>
      </trkpt>
      <trkpt lat="44.2644" lon="3.23523">
        <ele>755</ele>
        <time>2019-05-16T09:29:43Z</time>
      </trkpt>
      <trkpt lat="44.26442" lon="3.23518">
        <ele>755.40002441406</ele>
        <time>2019-05-16T09:29:44Z</time>
      </trkpt>
      <trkpt lat="44.26447" lon="3.235">
        <ele>756.59997558594</ele>
        <time>2019-05-16T09:29:48Z</time>
      </trkpt>
      <trkpt lat="44.26453" lon="3.23487">
        <ele>757.59997558594</ele>
        <time>2019-05-16T09:29:51Z</time>
      </trkpt>
      <trkpt lat="44.26455" lon="3.23484">
        <ele>758</ele>
        <time>2019-05-16T09:29:52Z</time>
      </trkpt>
      <trkpt lat="44.26458" lon="3.23481">
        <ele>758.80004882812</ele>
        <time>2019-05-16T09:29:53Z</time>
      </trkpt>
      <trkpt lat="44.26468" lon="3.23477">
        <ele>759.80004882812</ele>
        <time>2019-05-16T09:29:56Z</time>
      </trkpt>
      <trkpt lat="44.26472" lon="3.23476">
        <ele>760.19995117188</ele>
        <time>2019-05-16T09:29:57Z</time>
      </trkpt>
      <trkpt lat="44.26482" lon="3.23479">
        <ele>761</ele>
        <time>2019-05-16T09:30:00Z</time>
      </trkpt>
      <trkpt lat="44.26496" lon="3.23484">
        <ele>762.19995117188</ele>
        <time>2019-05-16T09:30:04Z</time>
      </trkpt>
      <trkpt lat="44.26506" lon="3.23489">
        <ele>763.19995117188</ele>
        <time>2019-05-16T09:30:07Z</time>
      </trkpt>
      <trkpt lat="44.26517" lon="3.23494">
        <ele>764.59997558594</ele>
        <time>2019-05-16T09:30:10Z</time>
      </trkpt>
      <trkpt lat="44.26527" lon="3.23497">
        <ele>765.59997558594</ele>
        <time>2019-05-16T09:30:13Z</time>
      </trkpt>
      <trkpt lat="44.2654" lon="3.23502">
        <ele>766.80004882812</ele>
        <time>2019-05-16T09:30:17Z</time>
      </trkpt>
      <trkpt lat="44.2655" lon="3.23506">
        <ele>767.59997558594</ele>
        <time>2019-05-16T09:30:20Z</time>
      </trkpt>
      <trkpt lat="44.26553" lon="3.23508">
        <ele>768</ele>
        <time>2019-05-16T09:30:21Z</time>
      </trkpt>
      <trkpt lat="44.26562" lon="3.23514">
        <ele>768.80004882812</ele>
        <time>2019-05-16T09:30:24Z</time>
      </trkpt>
      <trkpt lat="44.26568" lon="3.23518">
        <ele>769.40002441406</ele>
        <time>2019-05-16T09:30:26Z</time>
      </trkpt>
      <trkpt lat="44.26574" lon="3.23522">
        <ele>770</ele>
        <time>2019-05-16T09:30:28Z</time>
      </trkpt>
      <trkpt lat="44.26587" lon="3.2353">
        <ele>771.40002441406</ele>
        <time>2019-05-16T09:30:32Z</time>
      </trkpt>
      <trkpt lat="44.26598" lon="3.23532">
        <ele>772.19995117188</ele>
        <time>2019-05-16T09:30:35Z</time>
      </trkpt>
      <trkpt lat="44.26602" lon="3.23531">
        <ele>772.59997558594</ele>
        <time>2019-05-16T09:30:36Z</time>
      </trkpt>
      <trkpt lat="44.26617" lon="3.23524">
        <ele>773.40002441406</ele>
        <time>2019-05-16T09:30:40Z</time>
      </trkpt>
      <trkpt lat="44.2662" lon="3.23523">
        <ele>773.80004882812</ele>
        <time>2019-05-16T09:30:41Z</time>
      </trkpt>
      <trkpt lat="44.26627" lon="3.2352">
        <ele>774.59997558594</ele>
        <time>2019-05-16T09:30:43Z</time>
      </trkpt>
      <trkpt lat="44.26642" lon="3.23517">
        <ele>775.40002441406</ele>
        <time>2019-05-16T09:30:47Z</time>
      </trkpt>
      <trkpt lat="44.26651" lon="3.23514">
        <ele>776.40002441406</ele>
        <time>2019-05-16T09:30:50Z</time>
      </trkpt>
      <trkpt lat="44.26655" lon="3.23513">
        <ele>777.19995117188</ele>
        <time>2019-05-16T09:30:51Z</time>
      </trkpt>
      <trkpt lat="44.26665" lon="3.23509">
        <ele>778.19995117188</ele>
        <time>2019-05-16T09:30:54Z</time>
      </trkpt>
      <trkpt lat="44.26675" lon="3.23504">
        <ele>779.19995117188</ele>
        <time>2019-05-16T09:30:57Z</time>
      </trkpt>
      <trkpt lat="44.26678" lon="3.23503">
        <ele>779.59997558594</ele>
        <time>2019-05-16T09:30:58Z</time>
      </trkpt>
      <trkpt lat="44.26685" lon="3.23501">
        <ele>780.40002441406</ele>
        <time>2019-05-16T09:31:00Z</time>
      </trkpt>
      <trkpt lat="44.26696" lon="3.23502">
        <ele>781.40002441406</ele>
        <time>2019-05-16T09:31:03Z</time>
      </trkpt>
      <trkpt lat="44.26699" lon="3.23503">
        <ele>781.59997558594</ele>
        <time>2019-05-16T09:31:04Z</time>
      </trkpt>
      <trkpt lat="44.26713" lon="3.23509">
        <ele>783</ele>
        <time>2019-05-16T09:31:08Z</time>
      </trkpt>
      <trkpt lat="44.2672" lon="3.23511">
        <ele>783.59997558594</ele>
        <time>2019-05-16T09:31:10Z</time>
      </trkpt>
      <trkpt lat="44.26723" lon="3.23512">
        <ele>784</ele>
        <time>2019-05-16T09:31:11Z</time>
      </trkpt>
      <trkpt lat="44.26737" lon="3.23516">
        <ele>785</ele>
        <time>2019-05-16T09:31:15Z</time>
      </trkpt>
      <trkpt lat="44.2675" lon="3.23517">
        <ele>786.80004882812</ele>
        <time>2019-05-16T09:31:19Z</time>
      </trkpt>
      <trkpt lat="44.26765" lon="3.23516">
        <ele>787.80004882812</ele>
        <time>2019-05-16T09:31:22Z</time>
      </trkpt>
      <trkpt lat="44.26778" lon="3.23517">
        <ele>789</ele>
        <time>2019-05-16T09:31:26Z</time>
      </trkpt>
      <trkpt lat="44.26785" lon="3.2352">
        <ele>789.59997558594</ele>
        <time>2019-05-16T09:31:28Z</time>
      </trkpt>
      <trkpt lat="44.26788" lon="3.23522">
        <ele>790.19995117188</ele>
        <time>2019-05-16T09:31:30Z</time>
      </trkpt>
      <trkpt lat="44.268" lon="3.23538">
        <ele>791.40002441406</ele>
        <time>2019-05-16T09:31:34Z</time>
      </trkpt>
      <trkpt lat="44.26802" lon="3.23542">
        <ele>791.59997558594</ele>
        <time>2019-05-16T09:31:35Z</time>
      </trkpt>
      <trkpt lat="44.26809" lon="3.23553">
        <ele>792.59997558594</ele>
        <time>2019-05-16T09:31:38Z</time>
      </trkpt>
      <trkpt lat="44.26817" lon="3.23565">
        <ele>793.59997558594</ele>
        <time>2019-05-16T09:31:42Z</time>
      </trkpt>
      <trkpt lat="44.26823" lon="3.23572">
        <ele>794</ele>
        <time>2019-05-16T09:31:43Z</time>
      </trkpt>
      <trkpt lat="44.26829" lon="3.23579">
        <ele>794.59997558594</ele>
        <time>2019-05-16T09:31:45Z</time>
      </trkpt>
      <trkpt lat="44.26835" lon="3.23585">
        <ele>795.40002441406</ele>
        <time>2019-05-16T09:31:47Z</time>
      </trkpt>
      <trkpt lat="44.26839" lon="3.23587">
        <ele>795.80004882812</ele>
        <time>2019-05-16T09:31:48Z</time>
      </trkpt>
      <trkpt lat="44.26846" lon="3.23592">
        <ele>796.40002441406</ele>
        <time>2019-05-16T09:31:50Z</time>
      </trkpt>
      <trkpt lat="44.2685" lon="3.23594">
        <ele>797</ele>
        <time>2019-05-16T09:31:52Z</time>
      </trkpt>
      <trkpt lat="44.26869" lon="3.23596">
        <ele>798.19995117188</ele>
        <time>2019-05-16T09:31:56Z</time>
      </trkpt>
      <trkpt lat="44.2688" lon="3.23595">
        <ele>799.19995117188</ele>
        <time>2019-05-16T09:32:00Z</time>
      </trkpt>
      <trkpt lat="44.26892" lon="3.2359">
        <ele>800.59997558594</ele>
        <time>2019-05-16T09:32:04Z</time>
      </trkpt>
      <trkpt lat="44.26904" lon="3.23581">
        <ele>801.80004882812</ele>
        <time>2019-05-16T09:32:08Z</time>
      </trkpt>
      <trkpt lat="44.26913" lon="3.23574">
        <ele>803</ele>
        <time>2019-05-16T09:32:11Z</time>
      </trkpt>
      <trkpt lat="44.26919" lon="3.23569">
        <ele>803.59997558594</ele>
        <time>2019-05-16T09:32:13Z</time>
      </trkpt>
      <trkpt lat="44.26924" lon="3.23565">
        <ele>804.19995117188</ele>
        <time>2019-05-16T09:32:15Z</time>
      </trkpt>
      <trkpt lat="44.26934" lon="3.23566">
        <ele>805.40002441406</ele>
        <time>2019-05-16T09:32:18Z</time>
      </trkpt>
      <trkpt lat="44.26946" lon="3.23575">
        <ele>806.59997558594</ele>
        <time>2019-05-16T09:32:22Z</time>
      </trkpt>
      <trkpt lat="44.26958" lon="3.23585">
        <ele>807.59997558594</ele>
        <time>2019-05-16T09:32:25Z</time>
      </trkpt>
      <trkpt lat="44.26961" lon="3.23588">
        <ele>807.80004882812</ele>
        <time>2019-05-16T09:32:26Z</time>
      </trkpt>
      <trkpt lat="44.26968" lon="3.23592">
        <ele>809</ele>
        <time>2019-05-16T09:32:29Z</time>
      </trkpt>
      <trkpt lat="44.26981" lon="3.23597">
        <ele>810.19995117188</ele>
        <time>2019-05-16T09:32:33Z</time>
      </trkpt>
      <trkpt lat="44.26995" lon="3.23599">
        <ele>811.40002441406</ele>
        <time>2019-05-16T09:32:37Z</time>
      </trkpt>
      <trkpt lat="44.27009" lon="3.23599">
        <ele>812.59997558594</ele>
        <time>2019-05-16T09:32:41Z</time>
      </trkpt>
      <trkpt lat="44.27012" lon="3.23599">
        <ele>812.80004882812</ele>
        <time>2019-05-16T09:32:42Z</time>
      </trkpt>
      <trkpt lat="44.27019" lon="3.23597">
        <ele>813.80004882812</ele>
        <time>2019-05-16T09:32:44Z</time>
      </trkpt>
      <trkpt lat="44.27032" lon="3.23598">
        <ele>814.80004882812</ele>
        <time>2019-05-16T09:32:48Z</time>
      </trkpt>
      <trkpt lat="44.27042" lon="3.23601">
        <ele>815.80004882812</ele>
        <time>2019-05-16T09:32:51Z</time>
      </trkpt>
      <trkpt lat="44.27045" lon="3.23602">
        <ele>816.19995117188</ele>
        <time>2019-05-16T09:32:52Z</time>
      </trkpt>
      <trkpt lat="44.27055" lon="3.23606">
        <ele>817</ele>
        <time>2019-05-16T09:32:55Z</time>
      </trkpt>
      <trkpt lat="44.27068" lon="3.23608">
        <ele>818.19995117188</ele>
        <time>2019-05-16T09:32:59Z</time>
      </trkpt>
      <trkpt lat="44.27081" lon="3.23609">
        <ele>819.40002441406</ele>
        <time>2019-05-16T09:33:03Z</time>
      </trkpt>
      <trkpt lat="44.27094" lon="3.23608">
        <ele>820.59997558594</ele>
        <time>2019-05-16T09:33:07Z</time>
      </trkpt>
      <trkpt lat="44.27106" lon="3.23604">
        <ele>821.80004882812</ele>
        <time>2019-05-16T09:33:11Z</time>
      </trkpt>
      <trkpt lat="44.27113" lon="3.23598">
        <ele>822.59997558594</ele>
        <time>2019-05-16T09:33:13Z</time>
      </trkpt>
      <trkpt lat="44.27123" lon="3.2359">
        <ele>824</ele>
        <time>2019-05-16T09:33:18Z</time>
      </trkpt>
      <trkpt lat="44.27134" lon="3.23581">
        <ele>825</ele>
        <time>2019-05-16T09:33:22Z</time>
      </trkpt>
      <trkpt lat="44.27136" lon="3.23579">
        <ele>825.40002441406</ele>
        <time>2019-05-16T09:33:23Z</time>
      </trkpt>
      <trkpt lat="44.27146" lon="3.23574">
        <ele>826.19995117188</ele>
        <time>2019-05-16T09:33:26Z</time>
      </trkpt>
      <trkpt lat="44.27156" lon="3.23576">
        <ele>827.40002441406</ele>
        <time>2019-05-16T09:33:29Z</time>
      </trkpt>
      <trkpt lat="44.2716" lon="3.23578">
        <ele>827.59997558594</ele>
        <time>2019-05-16T09:33:30Z</time>
      </trkpt>
      <trkpt lat="44.27169" lon="3.23588">
        <ele>828.59997558594</ele>
        <time>2019-05-16T09:33:33Z</time>
      </trkpt>
      <trkpt lat="44.27178" lon="3.23598">
        <ele>829.80004882812</ele>
        <time>2019-05-16T09:33:36Z</time>
      </trkpt>
      <trkpt lat="44.2718" lon="3.23602">
        <ele>830.19995117188</ele>
        <time>2019-05-16T09:33:37Z</time>
      </trkpt>
      <trkpt lat="44.27188" lon="3.23613">
        <ele>831</ele>
        <time>2019-05-16T09:33:40Z</time>
      </trkpt>
      <trkpt lat="44.27195" lon="3.23623">
        <ele>832.19995117188</ele>
        <time>2019-05-16T09:33:43Z</time>
      </trkpt>
      <trkpt lat="44.27205" lon="3.23636">
        <ele>833.59997558594</ele>
        <time>2019-05-16T09:33:47Z</time>
      </trkpt>
      <trkpt lat="44.27208" lon="3.23639">
        <ele>833.80004882812</ele>
        <time>2019-05-16T09:33:48Z</time>
      </trkpt>
      <trkpt lat="44.27216" lon="3.23647">
        <ele>834.59997558594</ele>
        <time>2019-05-16T09:33:51Z</time>
      </trkpt>
      <trkpt lat="44.27226" lon="3.23654">
        <ele>835.59997558594</ele>
        <time>2019-05-16T09:33:54Z</time>
      </trkpt>
      <trkpt lat="44.27235" lon="3.2366">
        <ele>836.40002441406</ele>
        <time>2019-05-16T09:33:57Z</time>
      </trkpt>
      <trkpt lat="44.27238" lon="3.23662">
        <ele>836.59997558594</ele>
        <time>2019-05-16T09:33:58Z</time>
      </trkpt>
      <trkpt lat="44.27246" lon="3.23668">
        <ele>837.80004882812</ele>
        <time>2019-05-16T09:34:01Z</time>
      </trkpt>
      <trkpt lat="44.27258" lon="3.23676">
        <ele>838.80004882812</ele>
        <time>2019-05-16T09:34:05Z</time>
      </trkpt>
      <trkpt lat="44.27266" lon="3.23681">
        <ele>839.80004882812</ele>
        <time>2019-05-16T09:34:08Z</time>
      </trkpt>
      <trkpt lat="44.27269" lon="3.23683">
        <ele>840</ele>
        <time>2019-05-16T09:34:09Z</time>
      </trkpt>
      <trkpt lat="44.27278" lon="3.23687">
        <ele>841.40002441406</ele>
        <time>2019-05-16T09:34:12Z</time>
      </trkpt>
      <trkpt lat="44.2729" lon="3.23693">
        <ele>842.59997558594</ele>
        <time>2019-05-16T09:34:16Z</time>
      </trkpt>
      <trkpt lat="44.27295" lon="3.23698">
        <ele>843.19995117188</ele>
        <time>2019-05-16T09:34:18Z</time>
      </trkpt>
      <trkpt lat="44.273" lon="3.23703">
        <ele>843.59997558594</ele>
        <time>2019-05-16T09:34:20Z</time>
      </trkpt>
      <trkpt lat="44.27311" lon="3.23713">
        <ele>844.59997558594</ele>
        <time>2019-05-16T09:34:24Z</time>
      </trkpt>
      <trkpt lat="44.27319" lon="3.23721">
        <ele>845.40002441406</ele>
        <time>2019-05-16T09:34:27Z</time>
      </trkpt>
      <trkpt lat="44.27322" lon="3.23723">
        <ele>845.59997558594</ele>
        <time>2019-05-16T09:34:28Z</time>
      </trkpt>
      <trkpt lat="44.27332" lon="3.23729">
        <ele>846.80004882812</ele>
        <time>2019-05-16T09:34:32Z</time>
      </trkpt>
      <trkpt lat="44.27337" lon="3.23733">
        <ele>847.19995117188</ele>
        <time>2019-05-16T09:34:34Z</time>
      </trkpt>
      <trkpt lat="44.27342" lon="3.23737">
        <ele>848</ele>
        <time>2019-05-16T09:34:36Z</time>
      </trkpt>
      <trkpt lat="44.2735" lon="3.23744">
        <ele>849</ele>
        <time>2019-05-16T09:34:39Z</time>
      </trkpt>
      <trkpt lat="44.27358" lon="3.2375">
        <ele>850.40002441406</ele>
        <time>2019-05-16T09:34:42Z</time>
      </trkpt>
      <trkpt lat="44.27374" lon="3.2376">
        <ele>851.40002441406</ele>
        <time>2019-05-16T09:34:47Z</time>
      </trkpt>
      <trkpt lat="44.27387" lon="3.23768">
        <ele>852.59997558594</ele>
        <time>2019-05-16T09:34:51Z</time>
      </trkpt>
      <trkpt lat="44.27398" lon="3.23777">
        <ele>853.59997558594</ele>
        <time>2019-05-16T09:34:55Z</time>
      </trkpt>
      <trkpt lat="44.27406" lon="3.23788">
        <ele>854.59997558594</ele>
        <time>2019-05-16T09:34:58Z</time>
      </trkpt>
      <trkpt lat="44.27407" lon="3.23792">
        <ele>854.80004882812</ele>
        <time>2019-05-16T09:34:59Z</time>
      </trkpt>
      <trkpt lat="44.2741" lon="3.23811">
        <ele>856</ele>
        <time>2019-05-16T09:35:03Z</time>
      </trkpt>
      <trkpt lat="44.27411" lon="3.23815">
        <ele>856.19995117188</ele>
        <time>2019-05-16T09:35:04Z</time>
      </trkpt>
      <trkpt lat="44.27413" lon="3.23829">
        <ele>857.59997558594</ele>
        <time>2019-05-16T09:35:07Z</time>
      </trkpt>
      <trkpt lat="44.27414" lon="3.23848">
        <ele>859</ele>
        <time>2019-05-16T09:35:11Z</time>
      </trkpt>
      <trkpt lat="44.27412" lon="3.23862">
        <ele>860</ele>
        <time>2019-05-16T09:35:14Z</time>
      </trkpt>
      <trkpt lat="44.2741" lon="3.23866">
        <ele>860.19995117188</ele>
        <time>2019-05-16T09:35:15Z</time>
      </trkpt>
      <trkpt lat="44.27398" lon="3.23877">
        <ele>861.19995117188</ele>
        <time>2019-05-16T09:35:19Z</time>
      </trkpt>
      <trkpt lat="44.27395" lon="3.23878">
        <ele>861.40002441406</ele>
        <time>2019-05-16T09:35:20Z</time>
      </trkpt>
      <trkpt lat="44.27376" lon="3.23882">
        <ele>863</ele>
        <time>2019-05-16T09:35:25Z</time>
      </trkpt>
      <trkpt lat="44.27362" lon="3.23884">
        <ele>864</ele>
        <time>2019-05-16T09:35:29Z</time>
      </trkpt>
      <trkpt lat="44.27352" lon="3.23886">
        <ele>865</ele>
        <time>2019-05-16T09:35:32Z</time>
      </trkpt>
      <trkpt lat="44.27349" lon="3.23888">
        <ele>865.19995117188</ele>
        <time>2019-05-16T09:35:33Z</time>
      </trkpt>
      <trkpt lat="44.27338" lon="3.23892">
        <ele>866.59997558594</ele>
        <time>2019-05-16T09:35:36Z</time>
      </trkpt>
      <trkpt lat="44.27328" lon="3.23893">
        <ele>867.59997558594</ele>
        <time>2019-05-16T09:35:39Z</time>
      </trkpt>
      <trkpt lat="44.27312" lon="3.23883">
        <ele>868.80004882812</ele>
        <time>2019-05-16T09:35:44Z</time>
      </trkpt>
      <trkpt lat="44.27296" lon="3.23868">
        <ele>870</ele>
        <time>2019-05-16T09:35:49Z</time>
      </trkpt>
      <trkpt lat="44.27279" lon="3.23852">
        <ele>870.59997558594</ele>
        <time>2019-05-16T09:35:54Z</time>
      </trkpt>
      <trkpt lat="44.27272" lon="3.23845">
        <ele>871</ele>
        <time>2019-05-16T09:35:56Z</time>
      </trkpt>
      <trkpt lat="44.27243" lon="3.23819">
        <ele>872.19995117188</ele>
        <time>2019-05-16T09:36:04Z</time>
      </trkpt>
      <trkpt lat="44.2724" lon="3.23816">
        <ele>872.40002441406</ele>
        <time>2019-05-16T09:36:05Z</time>
      </trkpt>
      <trkpt lat="44.2722" lon="3.23796">
        <ele>873.19995117188</ele>
        <time>2019-05-16T09:36:11Z</time>
      </trkpt>
      <trkpt lat="44.27209" lon="3.23782">
        <ele>873.80004882812</ele>
        <time>2019-05-16T09:36:15Z</time>
      </trkpt>
      <trkpt lat="44.27202" lon="3.23772">
        <ele>874.40002441406</ele>
        <time>2019-05-16T09:36:18Z</time>
      </trkpt>
      <trkpt lat="44.27193" lon="3.23761">
        <ele>875</ele>
        <time>2019-05-16T09:36:21Z</time>
      </trkpt>
      <trkpt lat="44.27178" lon="3.23742">
        <ele>875.59997558594</ele>
        <time>2019-05-16T09:36:26Z</time>
      </trkpt>
      <trkpt lat="44.27166" lon="3.23729">
        <ele>876.19995117188</ele>
        <time>2019-05-16T09:36:30Z</time>
      </trkpt>
      <trkpt lat="44.27155" lon="3.23722">
        <ele>876.40002441406</ele>
        <time>2019-05-16T09:36:34Z</time>
      </trkpt>
      <trkpt lat="44.27152" lon="3.23718">
        <ele>877</ele>
        <time>2019-05-16T09:36:37Z</time>
      </trkpt>
      <trkpt lat="44.27143" lon="3.23718">
        <ele>877.40002441406</ele>
        <time>2019-05-16T09:37:26Z</time>
      </trkpt>
      <trkpt lat="44.27134" lon="3.23717">
        <ele>877.80004882812</ele>
        <time>2019-05-16T09:37:33Z</time>
      </trkpt>
      <trkpt lat="44.27126" lon="3.23716">
        <ele>878.59997558594</ele>
        <time>2019-05-16T09:37:42Z</time>
      </trkpt>
    </trkseg>
  </trk>
</gpx>